Time;durP1;ratioP1;P1;durP2;ratioP2;P2;SDS_P1;SDS_P2;PMS_P1;PMS_P2;Temp;Humidity;BMP_temperature;BMP_pressure;BME280_temperature;BME280_humidity;BME280_pressure;Samples;Min_cycle;Max_cycle;Signal;HPM_P1;HPM_P2
2023/03/18 00:00:49;;;;;;;12.00;8.23;;;;;;;;;;5032524;28;20021;-42
2023/03/18 00:03:14;;;;;;;13.02;8.15;;;;;;;;;;5031421;28;20040;-41
2023/03/18 00:05:40;;;;;;;14.07;7.80;;;;;;;;;;5032313;28;20068;-40
2023/03/18 00:08:06;;;;;;;10.52;7.70;;;;;;;;;;5041179;28;20037;-47
2023/03/18 00:10:33;;;;;;;12.93;7.95;;;;;;;;;;5038864;28;20021;-40
2023/03/18 00:13:00;;;;;;;13.48;8.55;;;;;;;;;;5039267;28;20033;-41
2023/03/18 00:15:26;;;;;;;11.55;7.80;;;;;;;;;;5034918;28;20082;-44
2023/03/18 00:17:52;;;;;;;12.93;8.23;;;;;;;;;;5036004;28;20533;-41
2023/03/18 00:20:27;;;;;;;12.65;8.80;;;;;;;;;;5033460;28;20044;-40
2023/03/18 00:22:53;;;;;;;13.52;9.02;;;;;;;;;;5035807;28;20031;-41
2023/03/18 00:25:18;;;;;;;14.25;8.35;;;;;;;;;;5035253;28;20398;-46
2023/03/18 00:27:44;;;;;;;11.00;7.68;;;;;;;;;;5037913;28;20037;-41
2023/03/18 00:30:11;;;;;;;17.30;8.20;;;;;;;;;;5036521;28;20502;-40
2023/03/18 00:32:37;;;;;;;12.90;7.93;;;;;;;;;;5036200;28;20033;-45
2023/03/18 00:35:03;;;;;;;13.10;8.45;;;;;;;;;;5038217;28;20479;-40
2023/03/18 00:37:29;;;;;;;13.02;8.48;;;;;;;;;;5028095;28;20048;-40
2023/03/18 00:40:03;;;;;;;11.52;7.88;;;;;;;;;;5034454;28;20118;-41
2023/03/18 00:42:36;;;;;;;13.95;8.93;;;;;;;;;;5036213;28;20051;-45
2023/03/18 00:45:03;;;;;;;13.60;8.00;;;;;;;;;;5033226;28;20097;-40
2023/03/18 00:47:29;;;;;;;16.83;8.05;;;;;;;;;;5036660;28;20044;-45
2023/03/18 00:49:54;;;;;;;13.80;8.07;;;;;;;;;;5039318;28;20159;-40
2023/03/18 00:52:21;;;;;;;11.70;7.60;;;;;;;;;;5037201;28;20466;-40
2023/03/18 00:54:46;;;;;;;12.40;7.43;;;;;;;;;;5037706;28;20041;-40
2023/03/18 00:57:12;;;;;;;12.88;7.28;;;;;;;;;;5039473;28;20052;-44
2023/03/18 00:59:37;;;;;;;13.93;7.30;;;;;;;;;;5038649;28;20052;-40
2023/03/18 01:02:03;;;;;;;11.20;7.00;;;;;;;;;;5026886;28;20064;-41
2023/03/18 01:04:28;;;;;;;14.13;8.55;;;;;;;;;;5037932;28;20025;-40
2023/03/18 01:06:54;;;;;;;16.48;8.48;;;;;;;;;;5034167;28;20541;-40
2023/03/18 01:09:19;;;;;;;11.13;7.60;;;;;;;;;;5033963;28;20037;-40
2023/03/18 01:11:44;;;;;;;11.65;7.78;;;;;;;;;;5037719;28;20417;-42
2023/03/18 01:14:11;;;;;;;14.10;8.38;;;;;;;;;;5037455;28;20147;-40
2023/03/18 01:16:36;;;;;;;12.70;8.13;;;;;;;;;;5031501;28;20041;-42
2023/03/18 01:19:03;;;;;;;13.40;7.88;;;;;;;;;;5029926;28;20493;-43
2023/03/18 01:21:28;;;;;;;17.52;8.27;;;;;;;;;;5030832;28;20041;-39
2023/03/18 01:23:54;;;;;;;10.48;7.70;;;;;;;;;;5032197;28;20481;-40
2023/03/18 01:26:19;;;;;;;11.25;7.63;;;;;;;;;;5031127;28;20395;-40
2023/03/18 01:28:46;;;;;;;16.08;8.30;;;;;;;;;;5030428;28;20028;-40
2023/03/18 01:31:11;;;;;;;12.00;7.22;;;;;;;;;;5032140;28;20474;-41
2023/03/18 01:33:37;;;;;;;14.63;8.32;;;;;;;;;;5033341;28;20086;-42
2023/03/18 01:36:03;;;;;;;12.00;8.05;;;;;;;;;;5032279;28;20029;-41
2023/03/18 01:38:29;;;;;;;12.18;7.35;;;;;;;;;;5034290;28;20120;-40
2023/03/18 01:40:56;;;;;;;12.27;7.60;;;;;;;;;;5038149;28;20060;-40
2023/03/18 01:43:29;;;;;;;12.35;7.55;;;;;;;;;;5036442;28;20045;-40
2023/03/18 01:45:57;;;;;;;13.40;7.18;;;;;;;;;;5039173;28;20025;-43
2023/03/18 01:48:26;;;;;;;11.10;7.35;;;;;;;;;;5032487;28;20525;-40
2023/03/18 01:50:58;;;;;;;10.48;6.88;;;;;;;;;;5031841;28;20032;-40
2023/03/18 01:53:27;;;;;;;12.88;8.07;;;;;;;;;;5034205;28;20513;-43
2023/03/18 01:55:53;;;;;;;13.55;6.93;;;;;;;;;;5036237;28;20044;-41
2023/03/18 01:58:26;;;;;;;12.10;7.28;;;;;;;;;;5031058;28;20037;-41
2023/03/18 02:00:59;;;;;;;12.00;7.13;;;;;;;;;;5028969;28;21396;-40
2023/03/18 02:03:26;;;;;;;11.20;8.50;;;;;;;;;;5034654;28;20041;-40
2023/03/18 02:05:52;;;;;;;12.50;7.32;;;;;;;;;;5036373;28;20027;-40
2023/03/18 02:08:18;;;;;;;13.15;7.28;;;;;;;;;;5030073;28;20040;-42
2023/03/18 02:10:44;;;;;;;16.17;7.75;;;;;;;;;;5037574;28;20407;-41
2023/03/18 02:13:11;;;;;;;10.07;7.15;;;;;;;;;;5034054;28;20041;-40
2023/03/18 02:16:00;;;;;;;13.23;7.40;;;;;;;;;;5035939;28;20033;-41
2023/03/18 02:18:40;;;;;;;13.80;7.85;;;;;;;;;;5033529;28;20127;-40
2023/03/18 02:21:32;;;;;;;10.73;7.55;;;;;;;;;;5034379;28;20038;-42
2023/03/18 02:24:12;;;;;;;17.38;8.45;;;;;;;;;;5029273;28;20029;-40
2023/03/18 02:26:56;;;;;;;15.13;8.43;;;;;;;;;;5024008;28;20050;-43
2023/03/18 02:29:23;;;;;;;11.20;7.93;;;;;;;;;;5033902;28;20036;-39
2023/03/18 02:31:49;;;;;;;12.13;8.00;;;;;;;;;;5037920;28;20049;-41
2023/03/18 02:34:16;;;;;;;12.43;7.57;;;;;;;;;;5035015;28;20109;-42
2023/03/18 02:36:41;;;;;;;14.45;8.35;;;;;;;;;;5032418;28;20535;-40
2023/03/18 02:39:12;;;;;;;12.35;7.95;;;;;;;;;;5035719;28;20020;-40
2023/03/18 02:41:38;;;;;;;12.07;7.78;;;;;;;;;;5034816;28;20489;-41
2023/03/18 02:44:03;;;;;;;11.65;7.78;;;;;;;;;;5035856;28;20048;-45
2023/03/18 02:46:54;;;;;;;12.77;7.80;;;;;;;;;;5034886;28;20406;-43
2023/03/18 02:49:21;;;;;;;12.55;7.88;;;;;;;;;;5029498;28;20117;-41
2023/03/18 02:51:47;;;;;;;11.35;7.95;;;;;;;;;;5031444;28;20037;-41
2023/03/18 02:54:18;;;;;;;12.32;8.75;;;;;;;;;;5034552;28;20021;-42
2023/03/18 02:56:44;;;;;;;14.20;8.90;;;;;;;;;;5028647;28;20053;-42
2023/03/18 02:59:10;;;;;;;16.05;9.45;;;;;;;;;;5029178;28;20037;-40
2023/03/18 03:01:37;;;;;;;16.85;9.82;;;;;;;;;;5033673;28;20040;-43
2023/03/18 03:04:03;;;;;;;19.25;9.80;;;;;;;;;;5027224;28;20036;-43
2023/03/18 03:06:28;;;;;;;17.23;9.50;;;;;;;;;;5035935;28;23077;-42
2023/03/18 03:08:54;;;;;;;16.10;8.73;;;;;;;;;;5029469;28;20758;-40
2023/03/18 03:11:20;;;;;;;17.05;9.30;;;;;;;;;;5035418;28;20045;-40
2023/03/18 03:13:46;;;;;;;17.88;9.57;;;;;;;;;;5037412;28;21746;-46
2023/03/18 03:16:16;;;;;;;15.35;9.40;;;;;;;;;;5031323;28;20033;-40
2023/03/18 03:18:42;;;;;;;14.23;9.13;;;;;;;;;;5031900;28;20036;-39
2023/03/18 03:21:08;;;;;;;18.27;8.93;;;;;;;;;;5028908;28;20031;-43
2023/03/18 03:23:34;;;;;;;21.75;10.18;;;;;;;;;;5034753;28;20030;-42
2023/03/18 03:26:00;;;;;;;15.38;9.27;;;;;;;;;;5035475;28;20025;-42
2023/03/18 03:28:26;;;;;;;14.32;9.23;;;;;;;;;;5029379;28;20036;-40
2023/03/18 03:30:52;;;;;;;14.40;9.75;;;;;;;;;;5038885;28;20109;-40
2023/03/18 03:33:18;;;;;;;15.20;9.88;;;;;;;;;;5030376;28;20132;-41
2023/03/18 03:35:43;;;;;;;14.45;9.43;;;;;;;;;;5030574;28;20664;-40
2023/03/18 03:38:09;;;;;;;17.20;9.07;;;;;;;;;;5035998;28;20096;-42
2023/03/18 03:40:36;;;;;;;17.38;9.10;;;;;;;;;;5036991;28;20025;-40
2023/03/18 03:43:01;;;;;;;17.77;9.45;;;;;;;;;;5038450;28;20048;-45
2023/03/18 03:45:27;;;;;;;10.60;8.38;;;;;;;;;;5032055;28;20071;-40
2023/03/18 03:47:53;;;;;;;13.63;9.07;;;;;;;;;;5033053;28;20083;-41
2023/03/18 03:50:18;;;;;;;13.75;8.57;;;;;;;;;;5035176;28;20529;-39
2023/03/18 03:52:45;;;;;;;10.65;8.45;;;;;;;;;;5036086;28;20044;-47
2023/03/18 03:55:14;;;;;;;15.02;9.00;;;;;;;;;;5037469;28;20029;-46
2023/03/18 03:57:39;;;;;;;13.88;9.20;;;;;;;;;;5034132;28;20049;-41
2023/03/18 04:00:12;;;;;;;14.98;9.80;;;;;;;;;;5034423;28;20026;-43
2023/03/18 04:02:38;;;;;;;12.50;8.95;;;;;;;;;;5038767;28;20429;-41
2023/03/18 04:05:04;;;;;;;14.77;9.80;;;;;;;;;;5034370;28;20040;-42
2023/03/18 04:07:30;;;;;;;16.83;9.73;;;;;;;;;;5032702;28;20033;-42
2023/03/18 04:09:55;;;;;;;12.65;8.20;;;;;;;;;;5033117;28;20435;-41
2023/03/18 04:12:21;;;;;;;16.98;9.13;;;;;;;;;;5036649;28;20037;-46
2023/03/18 04:14:46;;;;;;;9.20;7.20;;;;;;;;;;5037795;28;20064;-46
2023/03/18 04:17:12;;;;;;;15.75;8.63;;;;;;;;;;5032450;28;20045;-40
2023/03/18 04:19:38;;;;;;;10.52;7.32;;;;;;;;;;5034252;28;20040;-43
2023/03/18 04:22:04;;;;;;;11.40;7.43;;;;;;;;;;5032012;28;20041;-40
2023/03/18 04:24:29;;;;;;;11.95;7.82;;;;;;;;;;5035068;28;20103;-41
2023/03/18 04:26:54;;;;;;;11.85;8.63;;;;;;;;;;5037789;28;20128;-41
2023/03/18 04:29:21;;;;;;;11.95;8.00;;;;;;;;;;5027733;28;20475;-41
2023/03/18 04:31:46;;;;;;;12.52;8.15;;;;;;;;;;5036129;28;20075;-41
2023/03/18 04:34:12;;;;;;;10.32;7.63;;;;;;;;;;5034329;28;20549;-41
2023/03/18 04:36:38;;;;;;;12.18;8.52;;;;;;;;;;5035792;28;20060;-45
2023/03/18 04:39:03;;;;;;;9.82;7.78;;;;;;;;;;5033584;28;20040;-43
2023/03/18 04:41:29;;;;;;;11.85;8.75;;;;;;;;;;5031631;28;20045;-42
2023/03/18 04:43:55;;;;;;;12.23;9.35;;;;;;;;;;5039032;28;20029;-43
2023/03/18 04:46:20;;;;;;;13.43;10.35;;;;;;;;;;5036618;28;20494;-41
2023/03/18 04:48:45;;;;;;;12.82;9.55;;;;;;;;;;5032623;28;20187;-41
2023/03/18 04:51:11;;;;;;;15.63;10.23;;;;;;;;;;5031870;28;20026;-41
2023/03/18 04:53:37;;;;;;;17.63;10.45;;;;;;;;;;5036304;28;20037;-47
2023/03/18 04:56:04;;;;;;;15.88;9.32;;;;;;;;;;5037356;28;20029;-44
2023/03/18 04:58:29;;;;;;;13.30;8.77;;;;;;;;;;5029794;28;20025;-41
2023/03/18 05:00:55;;;;;;;13.93;9.95;;;;;;;;;;5030289;28;20032;-41
2023/03/18 05:03:21;;;;;;;16.52;9.10;;;;;;;;;;5036296;28;20041;-41
2023/03/18 05:05:48;;;;;;;14.45;9.23;;;;;;;;;;5038725;28;20029;-42
2023/03/18 05:08:14;;;;;;;12.38;8.02;;;;;;;;;;5032357;28;20453;-45
2023/03/18 05:10:40;;;;;;;13.60;8.20;;;;;;;;;;5041017;28;20029;-45
2023/03/18 05:13:05;;;;;;;12.60;8.43;;;;;;;;;;5035027;28;20046;-45
2023/03/18 05:15:31;;;;;;;13.90;8.65;;;;;;;;;;5040472;28;20079;-46
2023/03/18 05:17:58;;;;;;;12.45;8.60;;;;;;;;;;5032500;28;20044;-40
2023/03/18 05:20:23;;;;;;;14.18;8.52;;;;;;;;;;5032179;28;20033;-42
2023/03/18 05:22:48;;;;;;;20.52;9.02;;;;;;;;;;5035343;28;20657;-40
2023/03/18 05:25:14;;;;;;;17.80;8.98;;;;;;;;;;5036644;28;20489;-45
2023/03/18 05:27:41;;;;;;;13.13;8.82;;;;;;;;;;5036352;28;20072;-41
2023/03/18 05:30:09;;;;;;;16.65;9.07;;;;;;;;;;5030285;28;20025;-41
2023/03/18 05:32:35;;;;;;;11.38;7.95;;;;;;;;;;5034336;28;20134;-40
2023/03/18 05:35:01;;;;;;;11.18;8.02;;;;;;;;;;5033602;28;20111;-45
2023/03/18 05:37:26;;;;;;;13.07;8.68;;;;;;;;;;5037265;28;20038;-44
2023/03/18 05:39:52;;;;;;;12.00;8.07;;;;;;;;;;5032439;28;20146;-40
2023/03/18 05:42:18;;;;;;;15.35;8.88;;;;;;;;;;5029927;28;20453;-43
2023/03/18 05:44:44;;;;;;;15.27;8.23;;;;;;;;;;5035187;28;20088;-41
2023/03/18 05:47:09;;;;;;;12.80;7.55;;;;;;;;;;5031649;28;20042;-45
2023/03/18 05:49:35;;;;;;;13.35;7.65;;;;;;;;;;5037424;28;20493;-46
2023/03/18 05:52:01;;;;;;;13.13;8.00;;;;;;;;;;5034244;28;20068;-43
2023/03/18 05:54:27;;;;;;;10.40;7.68;;;;;;;;;;5030731;28;20462;-42
2023/03/18 05:56:53;;;;;;;9.98;7.15;;;;;;;;;;5027792;28;20044;-42
2023/03/18 05:59:20;;;;;;;22.17;8.43;;;;;;;;;;5032259;28;20037;-41
2023/03/18 06:01:47;;;;;;;10.73;7.13;;;;;;;;;;5037296;28;20030;-43
2023/03/18 06:04:14;;;;;;;12.30;7.13;;;;;;;;;;5031040;28;20025;-44
2023/03/18 06:06:39;;;;;;;8.98;7.05;;;;;;;;;;5036053;28;20037;-44
2023/03/18 06:09:07;;;;;;;11.00;7.25;;;;;;;;;;5032275;28;20025;-40
2023/03/18 06:11:32;;;;;;;12.68;7.97;;;;;;;;;;5032999;28;20066;-45
2023/03/18 06:13:58;;;;;;;11.15;7.90;;;;;;;;;;5037531;28;20025;-43
2023/03/18 06:16:24;;;;;;;9.15;7.65;;;;;;;;;;5035000;28;20048;-41
2023/03/18 06:18:50;;;;;;;8.15;6.85;;;;;;;;;;5031966;28;20466;-45
2023/03/18 06:21:15;;;;;;;11.30;7.68;;;;;;;;;;5030062;28;20039;-45
2023/03/18 06:23:41;;;;;;;10.40;7.10;;;;;;;;;;5053201;28;20057;-40
2023/03/18 06:26:07;;;;;;;11.02;8.02;;;;;;;;;;5036255;28;20021;-41
2023/03/18 06:28:33;;;;;;;10.98;7.00;;;;;;;;;;5033777;28;20041;-43
2023/03/18 06:31:00;;;;;;;9.32;7.47;;;;;;;;;;5031933;28;20108;-40
2023/03/18 06:33:26;;;;;;;10.40;6.97;;;;;;;;;;5034914;28;20025;-46
2023/03/18 06:35:53;;;;;;;16.33;7.13;;;;;;;;;;5032929;28;20075;-50
2023/03/18 06:38:19;;;;;;;8.50;6.50;;;;;;;;;;5031574;28;20043;-45
2023/03/18 06:40:45;;;;;;;9.93;6.75;;;;;;;;;;5032837;28;20033;-44
2023/03/18 06:43:11;;;;;;;9.18;7.13;;;;;;;;;;5033072;28;20033;-42
2023/03/18 06:45:37;;;;;;;11.25;6.97;;;;;;;;;;5032466;28;20033;-44
2023/03/18 06:48:03;;;;;;;8.73;7.20;;;;;;;;;;5033356;28;20057;-41
2023/03/18 06:50:30;;;;;;;13.70;7.50;;;;;;;;;;5030686;28;20037;-42
2023/03/18 06:52:57;;;;;;;8.82;7.13;;;;;;;;;;5037206;28;20413;-40
2023/03/18 06:55:24;;;;;;;10.57;6.90;;;;;;;;;;5027036;28;20051;-46
2023/03/18 06:57:49;;;;;;;12.43;7.90;;;;;;;;;;5038311;28;20162;-47
2023/03/18 07:00:16;;;;;;;15.52;7.97;;;;;;;;;;5030154;28;20054;-42
2023/03/18 07:02:42;;;;;;;9.75;7.00;;;;;;;;;;5033962;28;20133;-43
2023/03/18 07:05:08;;;;;;;11.05;7.15;;;;;;;;;;5035091;28;20033;-42
2023/03/18 07:07:36;;;;;;;13.43;8.10;;;;;;;;;;5032421;28;20509;-47
2023/03/18 07:10:04;;;;;;;8.65;7.18;;;;;;;;;;5031768;28;20530;-44
2023/03/18 07:12:29;;;;;;;13.32;7.75;;;;;;;;;;5034426;28;20225;-40
2023/03/18 07:14:55;;;;;;;10.10;7.00;;;;;;;;;;5035120;28;20133;-41
2023/03/18 07:17:21;;;;;;;11.20;7.50;;;;;;;;;;5034255;28;20042;-44
2023/03/18 07:19:47;;;;;;;10.02;7.10;;;;;;;;;;5035179;28;20395;-48
2023/03/18 07:22:16;;;;;;;11.80;7.10;;;;;;;;;;5033536;28;20033;-41
2023/03/18 07:24:42;;;;;;;10.68;7.28;;;;;;;;;;5033603;28;20033;-42
2023/03/18 07:27:08;;;;;;;12.80;7.45;;;;;;;;;;5031401;28;20481;-40
2023/03/18 07:29:34;;;;;;;11.98;7.63;;;;;;;;;;5034068;28;20053;-43
2023/03/18 07:32:00;;;;;;;11.38;7.30;;;;;;;;;;5034460;28;20518;-41
2023/03/18 07:34:26;;;;;;;9.13;7.10;;;;;;;;;;5029357;28;20032;-45
2023/03/18 07:36:52;;;;;;;11.85;7.88;;;;;;;;;;5031151;28;20044;-42
2023/03/18 07:39:17;;;;;;;17.13;8.13;;;;;;;;;;5032379;28;20033;-46
2023/03/18 07:41:43;;;;;;;13.27;8.45;;;;;;;;;;5029248;28;20048;-45
2023/03/18 07:44:08;;;;;;;23.67;8.52;;;;;;;;;;5024926;28;20493;-43
2023/03/18 07:46:33;;;;;;;13.82;8.68;;;;;;;;;;5031952;28;20390;-43
2023/03/18 07:48:59;;;;;;;12.95;8.18;;;;;;;;;;5023843;28;20151;-41
2023/03/18 07:51:26;;;;;;;14.88;8.20;;;;;;;;;;5031878;28;20056;-46
2023/03/18 07:53:51;;;;;;;16.77;9.20;;;;;;;;;;5019065;28;20112;-47
2023/03/18 07:56:17;;;;;;;10.55;7.35;;;;;;;;;;5027689;28;21117;-47
2023/03/18 07:58:42;;;;;;;11.38;7.68;;;;;;;;;;5031050;28;20034;-45
2023/03/18 08:01:08;;;;;;;11.13;7.85;;;;;;;;;;5024294;28;20032;-48
2023/03/18 08:03:34;;;;;;;15.35;7.47;;;;;;;;;;5030628;28;21236;-44
2023/03/18 08:05:59;;;;;;;10.80;7.03;;;;;;;;;;5025985;28;20109;-46
2023/03/18 08:08:25;;;;;;;10.60;6.55;;;;;;;;;;5016556;28;20045;-41
2023/03/18 08:10:54;;;;;;;11.23;6.57;;;;;;;;;;5026812;28;20025;-42
2023/03/18 08:13:20;;;;;;;8.45;5.95;;;;;;;;;;5030146;28;20124;-41
2023/03/18 08:15:45;;;;;;;13.88;5.90;;;;;;;;;;5018660;28;20580;-40
2023/03/18 08:18:11;;;;;;;10.88;5.65;;;;;;;;;;5024405;28;20038;-43
2023/03/18 08:20:37;;;;;;;11.65;5.57;;;;;;;;;;5024115;28;20082;-40
2023/03/18 08:23:02;;;;;;;5.78;4.75;;;;;;;;;;5025158;28;20041;-45
2023/03/18 08:25:28;;;;;;;7.18;5.05;;;;;;;;;;5029570;28;20056;-46
2023/03/18 08:27:53;;;;;;;8.43;5.22;;;;;;;;;;5034957;28;20041;-41
2023/03/18 08:30:19;;;;;;;10.80;5.07;;;;;;;;;;5029512;28;20021;-44
2023/03/18 08:32:45;;;;;;;7.60;4.43;;;;;;;;;;5030908;28;20087;-41
2023/03/18 08:35:11;;;;;;;6.70;4.55;;;;;;;;;;5024682;28;20452;-40
2023/03/18 08:37:37;;;;;;;10.55;4.40;;;;;;;;;;5023446;28;20042;-46
2023/03/18 08:40:04;;;;;;;7.95;4.50;;;;;;;;;;5032740;28;20091;-42
2023/03/18 08:42:29;;;;;;;6.88;4.65;;;;;;;;;;5028199;28;20046;-43
2023/03/18 08:44:55;;;;;;;6.07;4.30;;;;;;;;;;5033314;28;20041;-40
2023/03/18 08:47:21;;;;;;;7.30;4.15;;;;;;;;;;5025293;28;20093;-41
2023/03/18 08:49:46;;;;;;;7.50;4.32;;;;;;;;;;5022267;28;20033;-41
2023/03/18 08:52:12;;;;;;;7.15;4.40;;;;;;;;;;5028401;28;20033;-41
2023/03/18 08:54:37;;;;;;;5.03;4.13;;;;;;;;;;5026947;28;20069;-43
2023/03/18 08:57:03;;;;;;;7.45;4.13;;;;;;;;;;5025552;28;20115;-40
2023/03/18 08:59:29;;;;;;;6.85;4.45;;;;;;;;;;5032403;28;20037;-40
2023/03/18 09:01:54;;;;;;;7.13;4.07;;;;;;;;;;5030532;28;20538;-43
2023/03/18 09:04:19;;;;;;;4.28;3.88;;;;;;;;;;5030244;28;20041;-43
2023/03/18 09:06:47;;;;;;;5.50;3.92;;;;;;;;;;5026392;28;20127;-41
2023/03/18 09:09:13;;;;;;;8.05;3.95;;;;;;;;;;5031830;28;20032;-41
2023/03/18 09:11:39;;;;;;;7.20;3.70;;;;;;;;;;5027614;28;20486;-40
2023/03/18 09:14:04;;;;;;;6.00;4.13;;;;;;;;;;5030180;28;20516;-42
2023/03/18 09:16:30;;;;;;;7.00;4.28;;;;;;;;;;5021510;28;20064;-41
2023/03/18 09:18:55;;;;;;;6.13;4.18;;;;;;;;;;5018326;28;20033;-41
2023/03/18 09:21:21;;;;;;;5.55;4.28;;;;;;;;;;5020691;28;20037;-41
2023/03/18 09:23:48;;;;;;;9.00;4.40;;;;;;;;;;5022423;28;20033;-41
2023/03/18 09:26:14;;;;;;;9.25;3.75;;;;;;;;;;5030078;28;20055;-42
2023/03/18 09:28:39;;;;;;;9.35;4.20;;;;;;;;;;5030470;28;20041;-44
2023/03/18 09:31:05;;;;;;;10.85;4.65;;;;;;;;;;5034200;28;20489;-42
2023/03/18 09:33:30;;;;;;;6.82;4.50;;;;;;;;;;5022937;28;20025;-44
2023/03/18 09:35:56;;;;;;;7.13;4.38;;;;;;;;;;5039238;28;20052;-41
2023/03/18 09:38:21;;;;;;;8.27;4.70;;;;;;;;;;5033872;28;20041;-41
2023/03/18 09:41:09;;;;;;;6.63;4.13;;;;;;;;;;5036438;28;20650;-44
2023/03/18 09:43:43;;;;;;;5.45;3.92;;;;;;;;;;5033097;28;20770;-40
2023/03/18 09:46:17;;;;;;;9.15;4.50;;;;;;;;;;5031085;28;20494;-42
2023/03/18 09:48:47;;;;;;;7.88;4.25;;;;;;;;;;5034089;28;20037;-41
2023/03/18 09:51:34;;;;;;;10.50;4.18;;;;;;;;;;5033429;28;20586;-40
2023/03/18 09:54:19;;;;;;;8.23;4.40;;;;;;;;;;5036738;28;20037;-42
2023/03/18 09:56:46;;;;;;;7.13;4.78;;;;;;;;;;5032170;28;20041;-44
2023/03/18 09:59:18;;;;;;;8.95;4.78;;;;;;;;;;5040079;28;20025;-49
2023/03/18 10:01:47;;;;;;;8.68;5.07;;;;;;;;;;5037419;28;20115;-40
2023/03/18 10:04:12;;;;;;;6.57;4.97;;;;;;;;;;5030937;28;20021;-43
2023/03/18 10:06:41;;;;;;;15.32;5.18;;;;;;;;;;5031812;28;20398;-42
2023/03/18 10:09:19;;;;;;;8.45;5.00;;;;;;;;;;5033652;28;20041;-45
2023/03/18 10:11:50;;;;;;;8.27;4.25;;;;;;;;;;5033815;28;20106;-41
2023/03/18 10:14:27;;;;;;;9.75;5.45;;;;;;;;;;5036930;28;20037;-42
2023/03/18 10:17:19;;;;;;;5.50;4.47;;;;;;;;;;5029017;28;20091;-42
2023/03/18 10:19:52;;;;;;;7.25;4.60;;;;;;;;;;5031671;28;20029;-45
2023/03/18 10:22:23;;;;;;;6.88;4.47;;;;;;;;;;5028698;28;20128;-47
2023/03/18 10:25:12;;;;;;;6.50;4.20;;;;;;;;;;5029139;28;20020;-46
2023/03/18 10:27:54;;;;;;;8.48;4.35;;;;;;;;;;5034301;28;20452;-40
2023/03/18 10:30:44;;;;;;;6.45;4.30;;;;;;;;;;5036461;28;20101;-42
2023/03/18 10:33:30;;;;;;;10.43;5.18;;;;;;;;;;5030108;28;20045;-48
2023/03/18 10:36:04;;;;;;;7.53;4.38;;;;;;;;;;5029935;28;20041;-41
2023/03/18 10:38:37;;;;;;;9.75;4.25;;;;;;;;;;5035983;28;20148;-42
2023/03/18 10:41:33;;;;;;;7.05;4.07;;;;;;;;;;5034136;28;20118;-40
2023/03/18 10:44:03;;;;;;;10.75;4.32;;;;;;;;;;5023020;28;20041;-41
2023/03/18 10:46:30;;;;;;;12.73;4.25;;;;;;;;;;5037134;28;20041;-42
2023/03/18 10:49:11;;;;;;;7.35;4.13;;;;;;;;;;5033962;28;20087;-43
2023/03/18 10:51:53;;;;;;;6.85;3.92;;;;;;;;;;5028747;28;20112;-41
2023/03/18 10:54:27;;;;;;;6.93;3.95;;;;;;;;;;5030309;28;20041;-41
2023/03/18 10:56:53;;;;;;;4.15;2.85;;;;;;;;;;5031100;28;20107;-42
2023/03/18 10:59:21;;;;;;;7.50;4.00;;;;;;;;;;5035763;28;20033;-45
2023/03/18 11:01:51;;;;;;;6.07;3.22;;;;;;;;;;5037545;28;20410;-44
2023/03/18 11:04:20;;;;;;;5.32;3.40;;;;;;;;;;5035597;28;20108;-40
2023/03/18 11:06:45;;;;;;;7.18;3.10;;;;;;;;;;5032186;28;20049;-41
2023/03/18 11:09:15;;;;;;;8.45;3.63;;;;;;;;;;5031321;28;20426;-41
2023/03/18 11:11:47;;;;;;;6.03;3.45;;;;;;;;;;5032961;28;20045;-44
2023/03/18 11:14:19;;;;;;;10.63;3.33;;;;;;;;;;5036433;28;20087;-45
2023/03/18 11:17:04;;;;;;;7.78;2.83;;;;;;;;;;5033329;28;20136;-43
2023/03/18 11:19:31;;;;;;;6.28;2.60;;;;;;;;;;5034122;28;20037;-43
2023/03/18 11:22:18;;;;;;;3.15;2.50;;;;;;;;;;5037100;28;20037;-40
2023/03/18 11:24:43;;;;;;;5.18;2.55;;;;;;;;;;5037106;28;20038;-41
2023/03/18 11:27:15;;;;;;;3.80;1.85;;;;;;;;;;5027575;28;20754;-43
2023/03/18 11:29:51;;;;;;;5.38;1.88;;;;;;;;;;5032131;28;20037;-44
2023/03/18 11:32:29;;;;;;;4.65;1.70;;;;;;;;;;5027309;28;20623;-41
2023/03/18 11:35:00;;;;;;;3.50;1.40;;;;;;;;;;5034553;28;20391;-44
2023/03/18 11:37:35;;;;;;;2.53;1.63;;;;;;;;;;5033736;28;20497;-42
2023/03/18 11:40:24;;;;;;;2.72;1.58;;;;;;;;;;5038390;28;20037;-44
2023/03/18 11:43:00;;;;;;;1.88;1.42;;;;;;;;;;5028738;28;20037;-44
2023/03/18 11:45:49;;;;;;;4.30;1.88;;;;;;;;;;5028893;28;20041;-41
2023/03/18 11:48:28;;;;;;;4.03;1.65;;;;;;;;;;5026239;28;20049;-47
2023/03/18 11:51:21;;;;;;;3.83;1.65;;;;;;;;;;5032743;28;20393;-41
2023/03/18 11:53:56;;;;;;;2.58;1.60;;;;;;;;;;4974217;28;20046;-50
2023/03/18 11:56:40;;;;;;;3.75;1.88;;;;;;;;;;4973217;28;20515;-45
2023/03/18 11:59:37;;;;;;;4.60;1.67;;;;;;;;;;4973088;28;20062;-43
2023/03/18 12:02:41;;;;;;;3.42;1.85;;;;;;;;;;4977821;28;20038;-41
2023/03/18 12:05:27;;;;;;;6.15;1.83;;;;;;;;;;4976291;28;20043;-46
2023/03/18 12:08:04;;;;;;;4.20;1.73;;;;;;;;;;4977965;28;20046;-45
2023/03/18 12:11:27;;;;;;;4.47;2.22;;;;;;;;;;4972806;28;21276;-43
2023/03/18 12:13:59;;;;;;;4.68;1.90;;;;;;;;;;4940519;29;20056;-42
2023/03/18 12:16:39;;;;;;;;;;;;;;;;;;4941601;29;20608;-43
2023/03/18 12:19:29;;;;;;;2.33;1.50;;;;;;;;;;4934003;29;20462;-43
2023/03/18 12:22:29;;;;;;;6.00;1.88;;;;;;;;;;4936399;28;20069;-42
2023/03/18 12:25:31;;;;;;;3.40;1.70;;;;;;;;;;4940188;29;20047;-46
2023/03/18 12:28:01;;;;;;;4.85;2.10;;;;;;;;;;4937161;29;20040;-43
2023/03/18 12:30:42;;;;;;;3.22;1.58;;;;;;;;;;4957515;28;20518;-42
2023/03/18 12:33:45;;;;;;;6.13;1.67;;;;;;;;;;5008480;28;20128;-45
2023/03/18 12:36:33;;;;;;;4.57;1.70;;;;;;;;;;5013235;28;20117;-42
2023/03/18 12:39:20;;;;;;;6.53;2.03;;;;;;;;;;5012024;28;20182;-44
2023/03/18 12:41:58;;;;;;;6.60;1.88;;;;;;;;;;5017052;28;20053;-50
2023/03/18 12:44:29;;;;;;;3.22;1.75;;;;;;;;;;5022173;28;20041;-49
2023/03/18 12:47:05;;;;;;;7.63;1.65;;;;;;;;;;5033629;28;20048;-50
2023/03/18 12:49:34;;;;;;;4.45;1.70;;;;;;;;;;5034357;28;20032;-42
2023/03/18 12:52:32;;;;;;;7.03;1.75;;;;;;;;;;5036669;28;20564;-45
2023/03/18 12:55:10;;;;;;;3.45;1.50;;;;;;;;;;4997132;28;20173;-47
2023/03/18 12:57:44;;;;;;;3.20;1.80;;;;;;;;;;5001018;28;20044;-44
2023/03/18 13:00:40;;;;;;;5.22;1.52;;;;;;;;;;4997681;28;20054;-45
2023/03/18 13:03:36;;;;;;;4.65;1.80;;;;;;;;;;4997959;28;20084;-43
2023/03/18 13:06:27;;;;;;;3.50;1.67;;;;;;;;;;4995440;28;20049;-46
2023/03/18 13:09:08;;;;;;;6.97;1.88;;;;;;;;;;4994892;28;20038;-43
2023/03/18 13:12:00;;;;;;;5.38;1.63;;;;;;;;;;4994639;28;20093;-42
2023/03/18 13:14:40;;;;;;;5.55;1.40;;;;;;;;;;4993756;28;20041;-44
2023/03/18 13:17:16;;;;;;;4.47;1.70;;;;;;;;;;4989420;28;20046;-43
2023/03/18 13:19:42;;;;;;;11.70;2.25;;;;;;;;;;4995002;28;20495;-47
2023/03/18 13:22:25;;;;;;;6.45;1.63;;;;;;;;;;4993783;28;20172;-43
2023/03/18 13:25:02;;;;;;;8.85;2.03;;;;;;;;;;4989653;28;20461;-44
2023/03/18 13:27:47;;;;;;;4.82;1.80;;;;;;;;;;4993114;28;20173;-42
2023/03/18 13:30:15;;;;;;;6.40;1.40;;;;;;;;;;4994239;28;20034;-43
2023/03/18 13:33:18;;;;;;;4.22;1.58;;;;;;;;;;5033878;28;20053;-40
2023/03/18 13:36:09;;;;;;;;;;;;;;;;;;5035189;28;20075;-48
2023/03/18 13:39:05;;;;;;;9.48;1.88;;;;;;;;;;5031849;28;19921;-44
2023/03/18 13:41:52;;;;;;;4.80;1.65;;;;;;;;;;5035991;28;20097;-41
2023/03/18 13:44:29;;;;;;;5.47;1.60;;;;;;;;;;5030514;28;20037;-42
2023/03/18 13:47:02;;;;;;;5.97;1.48;;;;;;;;;;5033266;28;20095;-43
2023/03/18 13:49:30;;;;;;;4.90;1.58;;;;;;;;;;5031910;28;20037;-47
2023/03/18 13:51:59;;;;;;;4.03;1.73;;;;;;;;;;5035452;28;20064;-45
2023/03/18 13:54:34;;;;;;;6.53;1.73;;;;;;;;;;5034237;28;20426;-42
2023/03/18 13:57:23;;;;;;;9.48;1.88;;;;;;;;;;5034719;28;20102;-44
2023/03/18 13:59:48;;;;;;;3.53;1.63;;;;;;;;;;5026876;28;20040;-44
2023/03/18 14:02:38;;;;;;;8.32;2.25;;;;;;;;;;5034043;28;20038;-42
2023/03/18 14:05:33;;;;;;;5.65;1.48;;;;;;;;;;5038420;28;20059;-47
2023/03/18 14:08:04;;;;;;;5.30;1.83;;;;;;;;;;5033254;28;20044;-42
2023/03/18 14:10:30;;;;;;;2.95;1.60;;;;;;;;;;5035537;28;20032;-48
2023/03/18 14:13:15;;;;;;;5.43;1.92;;;;;;;;;;5030387;28;20065;-42
2023/03/18 14:15:43;;;;;;;6.25;1.80;;;;;;;;;;5030042;28;20033;-41
2023/03/18 14:18:24;;;;;;;16.52;2.30;;;;;;;;;;5037909;28;20478;-46
2023/03/18 14:20:57;;;;;;;4.63;2.00;;;;;;;;;;5029868;28;20037;-41
2023/03/18 14:23:38;;;;;;;7.75;1.95;;;;;;;;;;5034022;28;20117;-42
2023/03/18 14:26:20;;;;;;;6.80;2.58;;;;;;;;;;5034126;28;20167;-51
2023/03/18 14:28:55;;;;;;;4.75;1.60;;;;;;;;;;5029534;28;20537;-45
2023/03/18 14:31:31;;;;;;;8.63;2.00;;;;;;;;;;5027770;28;20052;-40
2023/03/18 14:34:01;;;;;;;6.50;1.67;;;;;;;;;;5033831;28;20082;-44
2023/03/18 14:36:45;;;;;;;8.18;1.98;;;;;;;;;;5033159;28;20037;-48
2023/03/18 14:39:28;;;;;;;5.15;1.92;;;;;;;;;;5031613;28;20070;-40
2023/03/18 14:41:58;;;;;;;7.40;1.80;;;;;;;;;;5030543;28;20526;-41
2023/03/18 14:44:43;;;;;;;9.02;1.92;;;;;;;;;;5028743;28;20033;-41
2023/03/18 14:47:17;;;;;;;8.50;2.00;;;;;;;;;;5030987;28;20502;-43
2023/03/18 14:49:49;;;;;;;5.63;1.98;;;;;;;;;;5034189;28;20086;-45
2023/03/18 14:52:35;;;;;;;4.72;1.65;;;;;;;;;;5031436;28;20040;-44
2023/03/18 14:55:04;;;;;;;8.52;1.90;;;;;;;;;;5031963;28;20029;-41
2023/03/18 14:57:30;;;;;;;9.05;1.98;;;;;;;;;;5029976;28;20044;-45